Morning Cecilie — 3FHK6 — position and weather

sailwx.info

Track history (hours):
 
Tides and Currents Weather Stations Pressure Air Temp Water Temp Dewpoint Dewpoint Depression Visibility Wind Speed Wind Dir Waves Ship Positions

Morning Cecilie

Last reported at 2018-Jun-22 12:28 UTC. Time now 2018-Jun-23 15:51 UTC.
Position N 38°20' W 071°27'.

Length 199 m; draft 8.2 m.

Type: Cargo ship. MMSI: 370869000.

Date/timePositionNaut miles runAvg speedWind from/ knotsBaromVisibWave heightAir tempDewpointWater temp
2018-Jun-22 12:28N 38°20' W 071°27'715.6
2018-Jun-22 12:00N 38°21' W 071°36'816.0
2018-Jun-22 11:31N 38°22' W 071°46'815.9
2018-Jun-22 11:00N 38°24' W 071°56'815.8
2018-Jun-22 10:29N 38°25' W 072°06'715.8
2018-Jun-22 10:01N 38°26' W 072°16'815.9
2018-Jun-22 09:30N 38°28' W 072°26'815.9
2018-Jun-22 08:59N 38°29' W 072°36'816.4
2018-Jun-22 08:28N 38°30' W 072°47'816.8
2018-Jun-22 08:00N 38°32' W 072°57'816.6
2018-Jun-22 07:30N 38°33' W 073°07'817.0
2018-Jun-22 07:01N 38°35' W 073°18'917.2
2018-Jun-22 06:31N 38°36' W 073°29'817.0
2018-Jun-22 06:01N 38°38' W 073°39'816.8
2018-Jun-22 05:30N 38°39' W 073°50'816.9
2018-Jun-22 05:00N 38°40' W 074°01'816.8
2018-Jun-22 04:31N 38°42' W 074°11'917.1
2018-Jun-22 04:00N 38°43' W 074°22'917.1
2018-Jun-22 03:30N 38°45' W 074°33'917.7
2018-Jun-22 03:00N 38°45' W 074°44'918.1
2018-Jun-22 02:30N 38°46' W 074°56'713.9
2018-Jun-22 02:00N 38°49' W 075°04'713.4
2018-Jun-22 01:30N 38°55' W 075°06'918.7
2018-Jun-22 01:00N 39°04' W 075°11'917.7
2018-Jun-22 00:31N 39°11' W 075°17'917.1
2018-Jun-21 23:59N 39°19' W 075°23'816.3
2018-Jun-21 23:30N 39°24' W 075°30'714.0
2018-Jun-21 23:00N 39°31' W 075°33'713.7
2018-Jun-21 22:30N 39°38' W 075°34'714.3
2018-Jun-21 22:00N 39°44' W 075°30'611.1
2018-Jun-21 21:30N 39°48' W 075°25'4 8.5
2018-Jun-21 21:00N 39°51' W 075°20'4 8.8
2018-Jun-21 20:30N 39°51' W 075°15'4 8.1
2018-Jun-21 19:59N 39°53' W 075°10'2 3.3
2018-Jun-21 19:25N 39°54' W 075°08'0 0.0
2018-Jun-21 18:58N 39°54' W 075°08'0 0.0
2018-Jun-21 18:28N 39°54' W 075°08'0 0.0
2018-Jun-21 17:58N 39°54' W 075°08'0 0.0
2018-Jun-21 17:28N 39°54' W 075°08'0 0.0
2018-Jun-21 16:58N 39°54' W 075°08'0 0.0
2018-Jun-21 16:28N 39°54' W 075°08'0 0.0
2018-Jun-21 15:58N 39°54' W 075°08'0 0.0
2018-Jun-21 15:28N 39°54' W 075°08'0 0.0
2018-Jun-21 14:58N 39°54' W 075°08'0 0.0
2018-Jun-21 14:28N 39°54' W 075°08'0 0.0
2018-Jun-21 13:58N 39°54' W 075°08'0 0.0
2018-Jun-21 13:28N 39°54' W 075°08'0 0.0
2018-Jun-21 12:58N 39°54' W 075°08'0 0.0
2018-Jun-21 12:28N 39°54' W 075°08'0 0.0
2018-Jun-21 11:58N 39°54' W 075°08'0 0.0
2018-Jun-21 11:28N 39°54' W 075°08'0 0.0
2018-Jun-21 10:58N 39°54' W 075°08'0 0.0
2018-Jun-21 10:28N 39°54' W 075°08'0 0.0
2018-Jun-21 09:58N 39°54' W 075°08'0 0.0
2018-Jun-21 09:28N 39°54' W 075°08'0 0.0
2018-Jun-21 08:58N 39°54' W 075°08'0 0.0
2018-Jun-21 08:28N 39°54' W 075°08'0 0.0
2018-Jun-21 07:58N 39°54' W 075°08'0 0.0
2018-Jun-21 07:28N 39°54' W 075°08'0 0.0
2018-Jun-21 06:58N 39°54' W 075°08'0 0.0
2018-Jun-21 06:28N 39°54' W 075°08'0 0.0
2018-Jun-21 05:58N 39°54' W 075°08'0 0.0
2018-Jun-21 05:28N 39°54' W 075°08'0 0.0
2018-Jun-21 04:58N 39°54' W 075°08'0 0.0
2018-Jun-21 04:28N 39°54' W 075°08'0 0.0
2018-Jun-21 03:58N 39°54' W 075°08'0 0.0
2018-Jun-21 03:28N 39°54' W 075°08'0 0.4
2018-Jun-21 03:00N 39°54' W 075°08'2 4.7
2018-Jun-21 02:30N 39°53' W 075°11'4 7.3
2018-Jun-21 02:00N 39°51' W 075°15'4 7.8
2018-Jun-21 01:30N 39°51' W 075°20'4 8.5
2018-Jun-21 01:00N 39°48' W 075°24'5 9.9
2018-Jun-21 00:30N 39°45' W 075°29'510.8
2018-Jun-21 00:00N 39°40' W 075°32'713.4
2018-Jun-20 23:30N 39°33' W 075°33'714.3
2018-Jun-20 23:00N 39°26' W 075°32'917.5
2018-Jun-20 22:30N 39°20' W 075°25'917.4
2018-Jun-20 22:00N 39°13' W 075°18'713.9
2018-Jun-20 21:30N 39°07' W 075°13'714.4
2018-Jun-20 21:01N 39°01' W 075°09'917.2
2018-Jun-20 20:31N 38°53' W 075°05'612.9
2018-Jun-20 20:01N 38°47' W 075°01'3 5.9
2018-Jun-20 19:30N 38°45' W 074°58'4 7.8
2018-Jun-20 19:00N 38°42' W 074°55'4 7.9
2018-Jun-20 18:30N 38°39' W 074°51'4 8.5
2018-Jun-20 18:00N 38°36' W 074°48'5 9.3
2018-Jun-20 17:30N 38°32' W 074°45'4 8.9
2018-Jun-20 17:00N 38°29' W 074°41'4 8.8
2018-Jun-20 16:30N 38°25' W 074°40'5 9.2
2018-Jun-20 16:01N 38°20' W 074°38'5 9.4
2018-Jun-20 15:29N 38°15' W 074°36'5 9.7
2018-Jun-20 14:59N 38°11' W 074°35'511.1
2018-Jun-20 14:30N 38°05' W 074°34'1018.4
2018-Jun-20 13:58N 37°56' W 074°31'814.0
2018-Jun-20 13:24N 37°48' W 074°28'712.8
2018-Jun-20 12:54N 37°42' W 074°27'3812.5
2018-Jun-20 09:49N 37°04' W 074°16'7813.0
2018-Jun-20 03:47N 35°47' W 074°28'815.0
2018-Jun-20 03:14N 35°39' W 074°33'314.4
2018-Jun-20 03:00N 35°36' W 074°35'714.0
2018-Jun-20 02:30N 35°30' W 074°39'714.0
2018-Jun-20 02:00N 35°24' W 074°43'714.4
2018-Jun-20 01:30N 35°17' W 074°46'815.9
2018-Jun-20 01:00N 35°10' W 074°51'816.9
2018-Jun-20 00:30N 35°03' W 074°55'816.8
2018-Jun-20 00:00N 34°55' W 074°60'816.7
2018-Jun-19 23:30N 34°50' W 075°08'916.7
2018-Jun-19 23:00N 34°45' W 075°16'816.4
2018-Jun-19 22:30N 34°40' W 075°24'815.3
2018-Jun-19 22:00N 34°35' W 075°31'714.6
2018-Jun-19 21:30N 34°31' W 075°38'714.2
2018-Jun-19 21:01N 34°26' W 075°45'713.7
2018-Jun-19 20:30N 34°22' W 075°52'713.8
2018-Jun-19 20:00N 34°18' W 075°58'815.2
2018-Jun-19 19:30N 34°14' W 076°06'815.2
2018-Jun-19 19:00N 34°09' W 076°13'715.1
2018-Jun-19 18:30N 34°04' W 076°20'815.1
2018-Jun-19 18:00N 34°00' W 076°28'814.7
2018-Jun-19 17:27N 33°55' W 076°36'715.9
2018-Jun-19 17:00N 33°51' W 076°43'1317.9
2018-Jun-19 16:16N 33°44' W 076°56'12217.7
2018-Jun-19 09:22N 32°33' W 078°55'918.2
2018-Jun-19 08:51N 32°28' W 079°04'618.1
2018-Jun-19 08:30N 32°24' W 079°10'918.4
2018-Jun-19 08:00N 32°19' W 079°19'1018.6
2018-Jun-19 07:27N 32°13' W 079°29'818.6
2018-Jun-19 07:00N 32°08' W 079°37'1018.7
2018-Jun-19 06:27N 32°02' W 079°47'918.7
2018-Jun-19 05:59N 31°56' W 079°54'918.6
2018-Jun-19 05:29N 31°49' W 080°01'1018.6
2018-Jun-19 04:58N 31°42' W 080°08'918.5
2018-Jun-19 04:30N 31°35' W 080°15'1218.5
2018-Jun-19 03:52N 31°26' W 080°24'1918.3
2018-Jun-19 02:49N 31°11' W 080°38'618.0
2018-Jun-19 02:29N 31°07' W 080°43'15 0.5
2018-Jun-17 22:00N 30°56' W 080°56'  
Track history (hours):
 
Tides and Currents Weather Stations Pressure Air Temp Water Temp Dewpoint Dewpoint Depression Visibility Wind Speed Wind Dir Waves Ship Positions

Morning Cecilie

Last reported at 2018-Jun-22 12:28 UTC. Time now 2018-Jun-23 15:51 UTC.
Position N 38°20' W 071°27'.

Length 199 m; draft 8.2 m.

Type: Cargo ship. MMSI: 370869000.

Date/timePositionNaut miles runAvg speedWind from/ knotsBaromVisibWave heightAir tempDewpointWater temp
2018-Jun-22 12:28N 38°20' W 071°27'715.6
2018-Jun-22 12:00N 38°21' W 071°36'816.0
2018-Jun-22 11:31N 38°22' W 071°46'815.9
2018-Jun-22 11:00N 38°24' W 071°56'815.8
2018-Jun-22 10:29N 38°25' W 072°06'715.8
2018-Jun-22 10:01N 38°26' W 072°16'815.9
2018-Jun-22 09:30N 38°28' W 072°26'815.9
2018-Jun-22 08:59N 38°29' W 072°36'816.4
2018-Jun-22 08:28N 38°30' W 072°47'816.8
2018-Jun-22 08:00N 38°32' W 072°57'816.6
2018-Jun-22 07:30N 38°33' W 073°07'817.0
2018-Jun-22 07:01N 38°35' W 073°18'917.2
2018-Jun-22 06:31N 38°36' W 073°29'817.0
2018-Jun-22 06:01N 38°38' W 073°39'816.8
2018-Jun-22 05:30N 38°39' W 073°50'816.9
2018-Jun-22 05:00N 38°40' W 074°01'816.8
2018-Jun-22 04:31N 38°42' W 074°11'917.1
2018-Jun-22 04:00N 38°43' W 074°22'917.1
2018-Jun-22 03:30N 38°45' W 074°33'917.7
2018-Jun-22 03:00N 38°45' W 074°44'918.1
2018-Jun-22 02:30N 38°46' W 074°56'713.9
2018-Jun-22 02:00N 38°49' W 075°04'713.4
2018-Jun-22 01:30N 38°55' W 075°06'918.7
2018-Jun-22 01:00N 39°04' W 075°11'917.7
2018-Jun-22 00:31N 39°11' W 075°17'917.1
2018-Jun-21 23:59N 39°19' W 075°23'816.3
2018-Jun-21 23:30N 39°24' W 075°30'714.0
2018-Jun-21 23:00N 39°31' W 075°33'713.7
2018-Jun-21 22:30N 39°38' W 075°34'714.3
2018-Jun-21 22:00N 39°44' W 075°30'611.1
2018-Jun-21 21:30N 39°48' W 075°25'4 8.5
2018-Jun-21 21:00N 39°51' W 075°20'4 8.8
2018-Jun-21 20:30N 39°51' W 075°15'4 8.1
2018-Jun-21 19:59N 39°53' W 075°10'2 3.3
2018-Jun-21 19:25N 39°54' W 075°08'0 0.0
2018-Jun-21 18:58N 39°54' W 075°08'0 0.0
2018-Jun-21 18:28N 39°54' W 075°08'0 0.0
2018-Jun-21 17:58N 39°54' W 075°08'0 0.0
2018-Jun-21 17:28N 39°54' W 075°08'0 0.0
2018-Jun-21 16:58N 39°54' W 075°08'0 0.0
2018-Jun-21 16:28N 39°54' W 075°08'0 0.0
2018-Jun-21 15:58N 39°54' W 075°08'0 0.0
2018-Jun-21 15:28N 39°54' W 075°08'0 0.0
2018-Jun-21 14:58N 39°54' W 075°08'0 0.0
2018-Jun-21 14:28N 39°54' W 075°08'0 0.0
2018-Jun-21 13:58N 39°54' W 075°08'0 0.0
2018-Jun-21 13:28N 39°54' W 075°08'0 0.0
2018-Jun-21 12:58N 39°54' W 075°08'0 0.0
2018-Jun-21 12:28N 39°54' W 075°08'0 0.0
2018-Jun-21 11:58N 39°54' W 075°08'0 0.0
2018-Jun-21 11:28N 39°54' W 075°08'0 0.0
2018-Jun-21 10:58N 39°54' W 075°08'0 0.0
2018-Jun-21 10:28N 39°54' W 075°08'0 0.0
2018-Jun-21 09:58N 39°54' W 075°08'0 0.0
2018-Jun-21 09:28N 39°54' W 075°08'0 0.0
2018-Jun-21 08:58N 39°54' W 075°08'0 0.0
2018-Jun-21 08:28N 39°54' W 075°08'0 0.0
2018-Jun-21 07:58N 39°54' W 075°08'0 0.0
2018-Jun-21 07:28N 39°54' W 075°08'0 0.0
2018-Jun-21 06:58N 39°54' W 075°08'0 0.0
2018-Jun-21 06:28N 39°54' W 075°08'0 0.0
2018-Jun-21 05:58N 39°54' W 075°08'0 0.0
2018-Jun-21 05:28N 39°54' W 075°08'0 0.0
2018-Jun-21 04:58N 39°54' W 075°08'0 0.0
2018-Jun-21 04:28N 39°54' W 075°08'0 0.0
2018-Jun-21 03:58N 39°54' W 075°08'0 0.0
2018-Jun-21 03:28N 39°54' W 075°08'0 0.4
2018-Jun-21 03:00N 39°54' W 075°08'2 4.7
2018-Jun-21 02:30N 39°53' W 075°11'4 7.3
2018-Jun-21 02:00N 39°51' W 075°15'4 7.8
2018-Jun-21 01:30N 39°51' W 075°20'4 8.5
2018-Jun-21 01:00N 39°48' W 075°24'5 9.9
2018-Jun-21 00:30N 39°45' W 075°29'510.8
2018-Jun-21 00:00N 39°40' W 075°32'713.4
2018-Jun-20 23:30N 39°33' W 075°33'714.3
2018-Jun-20 23:00N 39°26' W 075°32'917.5
2018-Jun-20 22:30N 39°20' W 075°25'917.4
2018-Jun-20 22:00N 39°13' W 075°18'713.9
2018-Jun-20 21:30N 39°07' W 075°13'714.4
2018-Jun-20 21:01N 39°01' W 075°09'917.2
2018-Jun-20 20:31N 38°53' W 075°05'612.9
2018-Jun-20 20:01N 38°47' W 075°01'3 5.9
2018-Jun-20 19:30N 38°45' W 074°58'4 7.8
2018-Jun-20 19:00N 38°42' W 074°55'4 7.9
2018-Jun-20 18:30N 38°39' W 074°51'4 8.5
2018-Jun-20 18:00N 38°36' W 074°48'5 9.3
2018-Jun-20 17:30N 38°32' W 074°45'4 8.9
2018-Jun-20 17:00N 38°29' W 074°41'4 8.8
2018-Jun-20 16:30N 38°25' W 074°40'5 9.2
2018-Jun-20 16:01N 38°20' W 074°38'5 9.4
2018-Jun-20 15:29N 38°15' W 074°36'5 9.7
2018-Jun-20 14:59N 38°11' W 074°35'511.1
2018-Jun-20 14:30N 38°05' W 074°34'1018.4
2018-Jun-20 13:58N 37°56' W 074°31'814.0
2018-Jun-20 13:24N 37°48' W 074°28'712.8
2018-Jun-20 12:54N 37°42' W 074°27'3812.5
2018-Jun-20 09:49N 37°04' W 074°16'7813.0
2018-Jun-20 03:47N 35°47' W 074°28'815.0
2018-Jun-20 03:14N 35°39' W 074°33'314.4
2018-Jun-20 03:00N 35°36' W 074°35'714.0
2018-Jun-20 02:30N 35°30' W 074°39'714.0
2018-Jun-20 02:00N 35°24' W 074°43'714.4
2018-Jun-20 01:30N 35°17' W 074°46'815.9
2018-Jun-20 01:00N 35°10' W 074°51'816.9
2018-Jun-20 00:30N 35°03' W 074°55'816.8
2018-Jun-20 00:00N 34°55' W 074°60'816.7
2018-Jun-19 23:30N 34°50' W 075°08'916.7
2018-Jun-19 23:00N 34°45' W 075°16'816.4
2018-Jun-19 22:30N 34°40' W 075°24'815.3
2018-Jun-19 22:00N 34°35' W 075°31'714.6
2018-Jun-19 21:30N 34°31' W 075°38'714.2
2018-Jun-19 21:01N 34°26' W 075°45'713.7
2018-Jun-19 20:30N 34°22' W 075°52'713.8
2018-Jun-19 20:00N 34°18' W 075°58'815.2
2018-Jun-19 19:30N 34°14' W 076°06'815.2
2018-Jun-19 19:00N 34°09' W 076°13'715.1
2018-Jun-19 18:30N 34°04' W 076°20'815.1
2018-Jun-19 18:00N 34°00' W 076°28'814.7
2018-Jun-19 17:27N 33°55' W 076°36'715.9
2018-Jun-19 17:00N 33°51' W 076°43'1317.9
2018-Jun-19 16:16N 33°44' W 076°56'12217.7
2018-Jun-19 09:22N 32°33' W 078°55'918.2
2018-Jun-19 08:51N 32°28' W 079°04'618.1
2018-Jun-19 08:30N 32°24' W 079°10'918.4
2018-Jun-19 08:00N 32°19' W 079°19'1018.6
2018-Jun-19 07:27N 32°13' W 079°29'818.6
2018-Jun-19 07:00N 32°08' W 079°37'1018.7
2018-Jun-19 06:27N 32°02' W 079°47'918.7
2018-Jun-19 05:59N 31°56' W 079°54'918.6
2018-Jun-19 05:29N 31°49' W 080°01'1018.6
2018-Jun-19 04:58N 31°42' W 080°08'918.5
2018-Jun-19 04:30N 31°35' W 080°15'1218.5
2018-Jun-19 03:52N 31°26' W 080°24'1918.3
2018-Jun-19 02:49N 31°11' W 080°38'618.0
2018-Jun-19 02:29N 31°07' W 080°43'15 0.5
2018-Jun-17 22:00N 30°56' W 080°56'  

Dump ship's entire track history